Time;durP1;ratioP1;P1;durP2;ratioP2;P2;SDS_P1;SDS_P2;PMS_P1;PMS_P2;Temp;Humidity;BMP_temperature;BMP_pressure;BME280_temperature;BME280_humidity;BME280_pressure;Samples;Min_cycle;Max_cycle;Signal;HPM_P1;HPM_P2
2023/07/15 00:00:31;;;;;;;2.58;1.05;;;24.90;49.00;;;;;;2293276;55;20980;-71
2023/07/15 00:02:57;;;;;;;2.45;1.00;;;25.00;49.10;;;;;;2527786;54;20978;-68
2023/07/15 00:05:35;;;;;;;2.00;0.88;;;25.00;49.10;;;;;;2528232;54;20940;-70
2023/07/15 00:08:05;;;;;;;2.62;0.95;;;25.00;49.10;;;;;;2293176;55;20932;-66
2023/07/15 00:10:36;;;;;;;2.30;0.90;;;25.00;49.10;;;;;;2288064;55;20970;-69
2023/07/15 00:13:02;;;;;;;1.85;0.70;;;25.00;49.10;;;;;;2512946;54;20990;-68
2023/07/15 00:15:28;;;;;;;2.33;1.00;;;25.00;49.10;;;;;;2528102;54;20936;-69
2023/07/15 00:17:55;;;;;;;2.20;1.10;;;25.10;49.20;;;;;;2527427;54;21671;-69
2023/07/15 00:20:21;;;;;;;2.65;1.10;;;25.10;49.10;;;;;;2292949;55;20980;-70
2023/07/15 00:22:49;;;;;;;2.40;1.00;;;25.10;49.10;;;;;;2528024;54;20889;-69
2023/07/15 00:25:20;;;;;;;2.87;1.25;;;25.10;49.10;;;;;;2525370;54;20925;-69
2023/07/15 00:27:48;;;;;;;2.12;0.93;;;25.10;49.10;;;;;;2527360;54;20964;-70
2023/07/15 00:30:15;;;;;;;2.03;0.93;;;25.10;49.00;;;;;;2527892;54;20961;-71
2023/07/15 00:32:45;;;;;;;2.05;1.00;;;25.20;49.10;;;;;;2502022;54;21823;-71
2023/07/15 00:35:31;;;;;;;2.00;0.93;;;25.20;49.10;;;;;;2527761;54;20980;-68
2023/07/15 00:37:58;;;;;;;2.00;0.90;;;25.20;49.10;;;;;;2292820;55;20952;-71
2023/07/15 00:40:29;;;;;;;2.58;0.93;;;25.20;49.10;;;;;;2527980;54;20932;-69
2023/07/15 00:43:31;;;;;;;2.72;1.12;;;25.20;49.10;;;;;;2519211;54;21061;-69
2023/07/15 00:47:47;;;;;;;2.58;1.00;;;25.20;49.00;;;;;;2284880;55;20971;-68
2023/07/15 00:50:14;;;;;;;2.00;0.90;;;25.20;49.00;;;;;;2292089;55;21063;-67
2023/07/15 00:52:41;;;;;;;1.90;0.90;;;25.20;49.00;;;;;;2292560;55;20956;-70
2023/07/15 00:55:08;;;;;;;1.95;0.90;;;25.20;49.00;;;;;;2527014;54;20920;-67
2023/07/15 00:57:34;;;;;;;2.30;0.98;;;25.20;49.00;;;;;;2292306;55;20972;-70
2023/07/15 01:00:03;;;;;;;2.25;1.00;;;25.20;49.00;;;;;;2527622;54;21024;-68
2023/07/15 01:02:30;;;;;;;3.08;1.27;;;25.20;49.00;;;;;;2528405;54;20917;-70
2023/07/15 01:04:56;;;;;;;2.62;1.15;;;25.20;49.10;;;;;;2527699;54;20924;-67
2023/07/15 01:07:23;;;;;;;2.28;1.02;;;25.20;49.20;;;;;;2525897;54;21861;-71
2023/07/15 01:09:50;;;;;;;4.25;1.27;;;25.20;49.20;;;;;;2527368;54;20932;-69
2023/07/15 01:12:17;;;;;;;2.85;1.10;;;25.20;49.30;;;;;;2292972;55;20960;-71
2023/07/15 01:14:44;;;;;;;2.37;1.10;;;25.20;49.30;;;;;;2292165;55;20924;-71
2023/07/15 01:17:10;;;;;;;3.58;1.30;;;25.20;49.90;;;;;;2292126;55;20952;-70
2023/07/15 01:19:37;;;;;;;2.30;0.90;;;25.10;49.30;;;;;;2527572;54;20933;-71
2023/07/15 01:22:06;;;;;;;2.22;1.10;;;25.10;49.30;;;;;;2527264;54;21327;-69
2023/07/15 01:24:34;;;;;;;2.35;1.02;;;25.10;49.30;;;;;;2528517;54;20987;-67
2023/07/15 01:27:07;;;;;;;2.35;1.23;;;25.10;49.30;;;;;;2527303;54;21832;-67
2023/07/15 01:29:33;;;;;;;4.18;1.02;;;25.00;49.30;;;;;;2528421;54;20998;-67
2023/07/15 01:32:00;;;;;;;2.42;1.12;;;25.00;49.30;;;;;;2292210;56;21739;-68
2023/07/15 01:34:26;;;;;;;2.33;0.95;;;25.00;49.30;;;;;;2526355;54;21237;-71
2023/07/15 01:36:53;;;;;;;3.20;1.40;;;25.00;49.30;;;;;;2292106;55;20912;-67
2023/07/15 01:39:21;;;;;;;2.50;1.30;;;25.00;49.50;;;;;;2527667;54;20933;-67
2023/07/15 01:41:48;;;;;;;2.62;1.20;;;24.90;49.50;;;;;;2528038;54;20940;-68
2023/07/15 01:44:15;;;;;;;2.97;1.55;;;24.90;49.50;;;;;;2527083;54;21457;-70
2023/07/15 01:46:41;;;;;;;2.67;1.30;;;24.90;49.50;;;;;;2292033;56;20912;-69
2023/07/15 01:49:42;;;;;;;3.08;1.25;;;24.80;49.50;;;;;;2527700;54;21391;-69
2023/07/15 01:52:09;;;;;;;2.17;0.98;;;24.80;49.80;;;;;;2527244;54;20932;-70
2023/07/15 01:54:35;;;;;;;3.17;1.17;;;24.80;49.60;;;;;;2290833;55;21892;-67
2023/07/15 01:57:02;;;;;;;2.53;1.23;;;24.80;49.60;;;;;;2275889;55;21585;-67
2023/07/15 01:59:31;;;;;;;2.42;1.10;;;24.70;49.60;;;;;;2280267;55;20940;-71
2023/07/15 02:01:57;;;;;;;2.60;1.20;;;24.70;49.70;;;;;;2292088;55;20959;-69
2023/07/15 02:04:24;;;;;;;2.67;1.17;;;24.60;49.60;;;;;;2292602;56;20964;-70
2023/07/15 02:06:54;;;;;;;2.55;1.20;;;24.60;49.70;;;;;;2507851;54;20941;-66
2023/07/15 02:09:20;;;;;;;2.20;1.15;;;24.60;49.80;;;;;;2517192;54;21505;-68
2023/07/15 02:11:47;;;;;;;2.67;1.40;;;24.50;49.80;;;;;;2291819;55;21638;-67
2023/07/15 02:14:13;;;;;;;2.55;1.40;;;24.50;50.00;;;;;;2291283;55;21214;-67
2023/07/15 02:16:40;;;;;;;2.67;1.33;;;24.40;50.00;;;;;;2290896;56;20958;-69
2023/07/15 02:19:06;;;;;;;2.55;1.30;;;24.40;50.00;;;;;;2527640;54;20932;-70
2023/07/15 02:21:33;;;;;;;2.85;1.30;;;24.40;50.00;;;;;;2292508;56;21337;-69
2023/07/15 02:24:01;;;;;;;2.37;1.10;;;24.30;50.00;;;;;;2293305;55;20940;-70
2023/07/15 02:26:28;;;;;;;3.30;1.40;;;24.30;50.10;;;;;;2527598;54;20992;-70
2023/07/15 02:28:57;;;;;;;2.70;1.10;;;24.20;50.00;;;;;;2528276;54;20916;-69
2023/07/15 02:31:25;;;;;;;3.22;1.15;;;24.20;50.10;;;;;;2527669;54;21625;-68
2023/07/15 02:33:52;;;;;;;2.30;0.90;;;24.10;50.10;;;;;;2291990;56;20948;-68
2023/07/15 02:36:18;;;;;;;2.50;1.10;;;24.10;50.20;;;;;;2292841;55;21016;-70
2023/07/15 02:38:45;;;;;;;2.90;1.50;;;24.10;50.30;;;;;;2292095;55;20884;-67
2023/07/15 02:41:14;;;;;;;2.78;1.27;;;24.00;50.30;;;;;;2292254;55;20952;-68
2023/07/15 02:43:41;;;;;;;2.65;1.10;;;24.00;50.40;;;;;;2527836;54;20912;-68
2023/07/15 02:46:08;;;;;;;3.08;1.40;;;23.90;50.40;;;;;;2527114;54;21889;-69
2023/07/15 02:48:38;;;;;;;2.97;1.40;;;23.90;50.40;;;;;;2528570;54;20972;-69
2023/07/15 02:51:04;;;;;;;1.98;1.05;;;23.90;50.50;;;;;;2527443;54;20901;-69
2023/07/15 02:53:31;;;;;;;2.80;1.50;;;23.80;50.40;;;;;;2292922;55;20936;-67
2023/07/15 02:55:57;;;;;;;2.50;1.17;;;23.80;50.60;;;;;;2528455;54;20893;-69
2023/07/15 02:58:25;;;;;;;2.40;1.10;;;23.80;50.60;;;;;;2292467;55;21757;-70
2023/07/15 03:00:51;;;;;;;2.50;1.25;;;23.70;50.60;;;;;;2293188;55;20982;-68
2023/07/15 03:03:18;;;;;;;2.90;1.50;;;23.70;50.70;;;;;;2528155;54;21835;-68
2023/07/15 03:05:46;;;;;;;2.55;1.20;;;23.70;50.70;;;;;;2528484;54;21004;-66
2023/07/15 03:08:12;;;;;;;2.50;1.10;;;23.70;50.80;;;;;;2293244;55;20908;-70
2023/07/15 03:10:40;;;;;;;3.22;1.10;;;23.60;50.80;;;;;;2528779;54;20912;-70
2023/07/15 03:13:07;;;;;;;2.72;1.35;;;23.50;50.90;;;;;;2528413;54;21393;-69
2023/07/15 03:15:35;;;;;;;3.42;1.50;;;23.50;51.00;;;;;;2528383;54;21378;-70
2023/07/15 03:18:02;;;;;;;2.17;1.02;;;23.50;51.80;;;;;;2292958;55;21572;-67
2023/07/15 03:20:28;;;;;;;2.78;1.42;;;23.50;51.30;;;;;;2293232;55;20972;-70
2023/07/15 03:22:55;;;;;;;2.37;1.17;;;23.50;51.30;;;;;;2292722;55;20916;-70
2023/07/15 03:25:26;;;;;;;3.20;1.15;;;23.40;51.30;;;;;;2275343;55;20930;-70
2023/07/15 03:27:56;;;;;;;2.28;1.10;;;23.30;51.20;;;;;;2525519;54;20959;-67
2023/07/15 03:30:23;;;;;;;2.62;1.20;;;23.40;51.40;;;;;;2292401;55;20979;-67
2023/07/15 03:32:53;;;;;;;2.37;1.20;;;23.40;51.30;;;;;;2527925;54;20913;-68
2023/07/15 03:35:26;;;;;;;2.05;1.05;;;23.40;51.40;;;;;;2528308;54;20893;-69
2023/07/15 03:37:53;;;;;;;2.80;1.10;;;23.40;51.50;;;;;;2528308;54;20956;-67
2023/07/15 03:40:21;;;;;;;2.78;1.10;;;23.30;51.40;;;;;;2292819;55;21035;-70
2023/07/15 03:42:47;;;;;;;3.72;1.10;;;23.30;51.50;;;;;;2293148;55;20940;-70
2023/07/15 03:45:14;;;;;;;2.67;1.23;;;23.30;51.50;;;;;;2527864;54;20973;-70
2023/07/15 03:47:40;;;;;;;3.62;1.30;;;23.30;51.60;;;;;;2528498;54;20929;-69
2023/07/15 03:50:09;;;;;;;2.30;1.20;;;23.30;51.60;;;;;;2292949;55;20892;-68
2023/07/15 03:52:36;;;;;;;2.30;1.02;;;23.20;51.60;;;;;;2528050;54;20996;-71
2023/07/15 03:55:03;;;;;;;2.05;0.90;;;23.20;51.60;;;;;;2528233;54;20960;-67
2023/07/15 03:57:29;;;;;;;3.40;1.10;;;23.20;51.70;;;;;;2528282;54;20956;-70
2023/07/15 03:59:56;;;;;;;2.40;1.20;;;23.20;51.70;;;;;;2274677;55;21760;-68
2023/07/15 04:02:22;;;;;;;2.42;1.25;;;23.20;51.70;;;;;;2413749;54;1856536;-67
2023/07/15 04:04:48;;;;;;;2.60;1.12;;;23.20;51.90;;;;;;2292611;55;20936;-68
2023/07/15 04:07:16;;;;;;;3.80;1.15;;;23.20;51.90;;;;;;2292230;55;20910;-67
2023/07/15 04:09:42;;;;;;;2.53;1.30;;;23.10;51.80;;;;;;2528201;54;21011;-66
2023/07/15 04:12:09;;;;;;;1.90;0.98;;;23.20;51.90;;;;;;2293106;55;20987;-67
2023/07/15 04:14:36;;;;;;;3.15;1.23;;;23.10;51.90;;;;;;2292846;56;20973;-68
2023/07/15 04:17:03;;;;;;;3.12;1.30;;;23.10;51.90;;;;;;2293048;55;20916;-69
2023/07/15 04:19:29;;;;;;;2.72;1.27;;;23.10;51.90;;;;;;2293128;55;20921;-69
2023/07/15 04:21:57;;;;;;;2.78;1.20;;;23.10;51.90;;;;;;2293358;55;21032;-69
2023/07/15 04:24:23;;;;;;;3.75;1.30;;;23.10;52.00;;;;;;2527698;54;21040;-68
2023/07/15 04:26:51;;;;;;;2.40;0.93;;;23.00;51.90;;;;;;2292548;55;21007;-66
2023/07/15 04:29:18;;;;;;;2.05;1.02;;;23.00;52.00;;;;;;2527744;54;20972;-68
2023/07/15 04:31:44;;;;;;;2.67;1.25;;;23.00;52.00;;;;;;2528444;54;20960;-70
2023/07/15 04:34:11;;;;;;;2.47;1.20;;;23.00;52.10;;;;;;2295531;55;20952;-67
2023/07/15 04:36:37;;;;;;;3.90;1.50;;;23.00;52.10;;;;;;2271708;55;20936;-70
2023/07/15 04:39:05;;;;;;;3.85;1.30;;;23.00;52.20;;;;;;2526849;54;20965;-70
2023/07/15 04:41:31;;;;;;;2.12;1.10;;;23.00;52.20;;;;;;2528544;54;21000;-71
2023/07/15 04:43:57;;;;;;;2.40;1.17;;;23.00;52.30;;;;;;2527797;54;20893;-69
2023/07/15 04:46:24;;;;;;;2.62;1.20;;;22.90;52.30;;;;;;2292245;55;21000;-67
2023/07/15 04:48:50;;;;;;;2.55;1.05;;;22.90;52.30;;;;;;2293084;55;20981;-70
2023/07/15 04:51:16;;;;;;;2.95;1.20;;;22.90;52.40;;;;;;2527705;54;20928;-68
2023/07/15 04:53:43;;;;;;;1.92;1.00;;;22.90;52.50;;;;;;2292468;55;20936;-68
2023/07/15 04:56:10;;;;;;;2.37;1.27;;;22.90;52.70;;;;;;2513780;54;21030;-67
2023/07/15 04:58:36;;;;;;;2.75;1.17;;;23.00;52.80;;;;;;2282903;55;21013;-67
2023/07/15 05:01:04;;;;;;;2.15;1.05;;;23.00;52.90;;;;;;2292555;55;20976;-67
2023/07/15 05:03:32;;;;;;;2.33;1.20;;;23.00;53.00;;;;;;2291848;55;20916;-69
2023/07/15 05:05:58;;;;;;;2.95;1.55;;;23.00;53.00;;;;;;2275609;55;20918;-67
2023/07/15 05:08:27;;;;;;;2.80;1.30;;;22.90;52.90;;;;;;2291091;55;21854;-68
2023/07/15 05:10:57;;;;;;;3.00;1.37;;;23.00;53.10;;;;;;2528443;54;20942;-69
2023/07/15 05:13:25;;;;;;;2.28;1.17;;;23.10;53.20;;;;;;2292420;55;21755;-68
2023/07/15 05:15:52;;;;;;;2.40;1.20;;;23.10;53.30;;;;;;2528003;54;21364;-68
2023/07/15 05:18:18;;;;;;;4.18;1.45;;;23.10;53.30;;;;;;2292965;55;20928;-71
2023/07/15 05:20:44;;;;;;;3.62;1.20;;;23.20;53.30;;;;;;2528289;54;20908;-70
2023/07/15 05:23:11;;;;;;;2.30;1.30;;;23.20;53.40;;;;;;2528389;54;20920;-68
2023/07/15 05:25:39;;;;;;;2.60;1.40;;;23.30;53.40;;;;;;2528496;54;20912;-71
2023/07/15 05:28:07;;;;;;;2.67;1.20;;;23.30;53.40;;;;;;2280605;55;21407;-71
2023/07/15 05:30:35;;;;;;;2.37;1.10;;;23.40;53.50;;;;;;2519844;54;20984;-67
2023/07/15 05:33:02;;;;;;;2.92;1.10;;;23.50;53.70;;;;;;2528093;54;21758;-69
2023/07/15 05:35:29;;;;;;;3.58;1.52;;;23.50;53.90;;;;;;2282102;55;21053;-71
2023/07/15 05:37:56;;;;;;;2.62;1.40;;;23.60;53.80;;;;;;2518865;54;20988;-69
2023/07/15 05:40:23;;;;;;;2.70;1.23;;;23.60;54.40;;;;;;2292839;55;20932;-70
2023/07/15 05:42:49;;;;;;;2.50;1.15;;;23.70;53.80;;;;;;2274336;55;21025;-71
2023/07/15 05:45:17;;;;;;;2.78;1.30;;;23.70;53.70;;;;;;2292979;55;20913;-67
2023/07/15 05:47:43;;;;;;;2.97;1.30;;;23.80;53.80;;;;;;2292845;56;20948;-68
2023/07/15 05:50:09;;;;;;;2.10;1.10;;;23.80;53.80;;;;;;2501567;54;20962;-70
2023/07/15 05:52:35;;;;;;;3.05;1.30;;;23.90;53.90;;;;;;2508296;54;21026;-67
2023/07/15 05:55:02;;;;;;;3.35;1.48;;;24.00;53.90;;;;;;2520525;54;20928;-68
2023/07/15 05:57:28;;;;;;;3.05;1.52;;;24.00;53.70;;;;;;2292777;55;20924;-70
2023/07/15 05:59:56;;;;;;;2.30;1.02;;;24.10;54.40;;;;;;2293773;55;21768;-71
2023/07/15 06:02:22;;;;;;;2.28;1.27;;;24.20;53.90;;;;;;2527247;54;20925;-70
2023/07/15 06:04:49;;;;;;;2.30;1.10;;;24.20;53.80;;;;;;2293073;55;21838;-71
2023/07/15 06:07:15;;;;;;;2.55;1.20;;;24.30;53.80;;;;;;2527832;54;21761;-71
2023/07/15 06:09:41;;;;;;;3.95;1.58;;;24.30;53.80;;;;;;2294139;55;20908;-68
2023/07/15 06:12:08;;;;;;;3.00;1.50;;;24.40;54.00;;;;;;2496919;55;21812;-68
2023/07/15 06:14:34;;;;;;;2.58;1.30;;;24.50;54.00;;;;;;2281128;55;20916;-67
2023/07/15 06:17:01;;;;;;;2.22;1.20;;;24.60;54.20;;;;;;2528065;54;21027;-68
2023/07/15 06:19:27;;;;;;;2.50;1.23;;;24.60;54.20;;;;;;2527386;54;21000;-69
2023/07/15 06:21:53;;;;;;;2.58;1.35;;;24.70;54.30;;;;;;2293052;55;20944;-68
2023/07/15 06:24:20;;;;;;;2.55;1.20;;;24.80;54.30;;;;;;2528003;54;20980;-71
2023/07/15 06:26:46;;;;;;;2.55;1.27;;;24.90;54.40;;;;;;2528204;54;20932;-71
2023/07/15 06:29:12;;;;;;;2.70;1.30;;;25.00;54.50;;;;;;2528112;54;20904;-70
2023/07/15 06:31:39;;;;;;;2.67;1.48;;;25.00;54.50;;;;;;2292357;55;21487;-71
2023/07/15 06:34:05;;;;;;;3.78;1.83;;;25.10;54.50;;;;;;2527833;54;20916;-70
2023/07/15 06:36:31;;;;;;;2.00;1.00;;;25.20;54.60;;;;;;2292855;55;20988;-69
2023/07/15 06:38:58;;;;;;;2.95;1.45;;;25.30;54.60;;;;;;2292514;55;21849;-70
2023/07/15 06:41:24;;;;;;;2.30;1.17;;;25.40;54.60;;;;;;2527572;54;20923;-68
2023/07/15 06:43:50;;;;;;;4.47;1.90;;;25.50;54.60;;;;;;2528337;54;20904;-69
2023/07/15 06:46:19;;;;;;;2.85;1.67;;;25.60;54.60;;;;;;2527242;54;20921;-68
2023/07/15 06:48:45;;;;;;;3.20;1.62;;;25.70;54.60;;;;;;2528031;54;20897;-69
2023/07/15 06:51:15;;;;;;;4.12;1.55;;;25.90;54.70;;;;;;2528028;54;20957;-71
2023/07/15 06:53:44;;;;;;;2.45;1.30;;;26.00;54.60;;;;;;2527813;54;21008;-69
2023/07/15 06:56:11;;;;;;;2.50;1.20;;;26.10;54.70;;;;;;2292251;55;21040;-70
2023/07/15 06:58:44;;;;;;;2.95;1.42;;;26.20;54.60;;;;;;2500595;54;20969;-72
2023/07/15 07:01:11;;;;;;;3.28;1.50;;;26.30;54.70;;;;;;2292638;55;21008;-70
2023/07/15 07:03:37;;;;;;;2.60;1.45;;;26.40;54.70;;;;;;2527951;54;20980;-70
2023/07/15 07:06:04;;;;;;;3.33;1.75;;;26.60;54.80;;;;;;2527257;54;21771;-68
2023/07/15 07:08:31;;;;;;;3.30;1.70;;;26.70;54.50;;;;;;2292615;55;20913;-67
2023/07/15 07:10:57;;;;;;;2.80;1.50;;;26.70;54.30;;;;;;2292610;55;20944;-68
2023/07/15 07:13:26;;;;;;;3.17;1.52;;;26.80;54.20;;;;;;2528429;54;20968;-66
2023/07/15 07:15:58;;;;;;;2.90;1.52;;;26.90;54.00;;;;;;2527907;54;21823;-69
2023/07/15 07:18:25;;;;;;;2.70;1.30;;;27.00;53.80;;;;;;2528365;54;21238;-68
2023/07/15 07:20:58;;;;;;;2.70;1.40;;;27.10;53.60;;;;;;2293666;55;20932;-68
2023/07/15 07:23:26;;;;;;;2.47;1.12;;;27.20;53.60;;;;;;2528094;54;20920;-68
2023/07/15 07:25:53;;;;;;;2.95;1.40;;;27.20;53.60;;;;;;2293160;55;20916;-68
2023/07/15 07:28:23;;;;;;;3.05;1.40;;;27.30;53.50;;;;;;2528162;54;21838;-70
2023/07/15 07:30:49;;;;;;;3.47;1.67;;;27.40;53.40;;;;;;2528629;54;20984;-68
2023/07/15 07:33:16;;;;;;;3.08;1.55;;;27.50;53.40;;;;;;2516176;54;20962;-67
2023/07/15 07:35:47;;;;;;;2.40;1.20;;;27.50;53.30;;;;;;2514923;54;21040;-70
2023/07/15 07:38:13;;;;;;;4.12;1.30;;;27.70;53.30;;;;;;2504950;54;21046;-68
2023/07/15 07:40:44;;;;;;;3.53;1.40;;;27.70;53.30;;;;;;2506187;54;20905;-71
2023/07/15 07:43:10;;;;;;;2.83;1.40;;;27.80;53.30;;;;;;2526252;54;20980;-67
2023/07/15 07:45:37;;;;;;;2.58;1.37;;;27.90;53.20;;;;;;2527680;54;21397;-68
2023/07/15 07:48:04;;;;;;;3.05;1.48;;;28.00;53.30;;;;;;2293149;55;20932;-69
2023/07/15 07:50:31;;;;;;;3.95;1.33;;;28.10;53.20;;;;;;2292459;55;21624;-69
2023/07/15 07:52:57;;;;;;;2.55;1.20;;;28.20;53.00;;;;;;2291951;55;20928;-67
2023/07/15 07:55:23;;;;;;;2.50;1.23;;;28.30;52.90;;;;;;2292382;55;21322;-66
2023/07/15 07:57:52;;;;;;;3.17;1.42;;;28.40;52.90;;;;;;2528203;54;20908;-69
2023/07/15 08:00:19;;;;;;;3.37;1.25;;;28.50;52.80;;;;;;2294679;55;20948;-67
2023/07/15 08:02:48;;;;;;;2.70;1.40;;;28.60;52.70;;;;;;2527464;54;21780;-69
2023/07/15 08:05:14;;;;;;;2.20;1.10;;;28.70;52.60;;;;;;2527600;54;20900;-68
2023/07/15 08:07:42;;;;;;;2.67;1.20;;;28.80;52.50;;;;;;2292928;55;20892;-67
2023/07/15 08:10:08;;;;;;;3.72;1.30;;;28.90;52.40;;;;;;2527951;54;21512;-70
2023/07/15 08:12:35;;;;;;;2.78;1.40;;;29.00;52.30;;;;;;2528074;54;20924;-70
2023/07/15 08:15:03;;;;;;;2.70;1.55;;;29.00;52.30;;;;;;2528240;54;21500;-69
2023/07/15 08:17:31;;;;;;;2.50;1.20;;;29.10;52.40;;;;;;2292386;55;20936;-68
2023/07/15 08:19:57;;;;;;;3.53;1.55;;;29.30;52.40;;;;;;2292904;55;21454;-67
2023/07/15 08:22:24;;;;;;;3.62;1.45;;;29.30;52.40;;;;;;2292970;55;20916;-69
2023/07/15 08:24:50;;;;;;;2.72;1.37;;;29.40;52.40;;;;;;2285681;55;20949;-68
2023/07/15 08:27:16;;;;;;;2.55;1.45;;;29.50;52.40;;;;;;2513637;54;21744;-69
2023/07/15 08:29:43;;;;;;;3.15;1.40;;;29.60;52.40;;;;;;2527635;54;21024;-70
2023/07/15 08:32:10;;;;;;;3.10;1.40;;;29.70;52.30;;;;;;2527592;54;21012;-69
2023/07/15 08:34:37;;;;;;;2.58;1.25;;;29.80;52.10;;;;;;2291785;55;21019;-68
2023/07/15 08:37:04;;;;;;;4.03;1.60;;;29.80;52.00;;;;;;2527156;54;21489;-68
2023/07/15 08:39:31;;;;;;;3.78;1.40;;;29.90;51.60;;;;;;2292354;55;20909;-68
2023/07/15 08:41:57;;;;;;;2.62;1.25;;;30.00;51.50;;;;;;2293125;55;20920;-69
2023/07/15 08:44:24;;;;;;;2.67;1.48;;;30.10;51.40;;;;;;2526709;54;20905;-69
2023/07/15 08:46:51;;;;;;;3.33;1.65;;;30.20;51.30;;;;;;2509870;54;20970;-69
2023/07/15 08:49:17;;;;;;;3.33;1.50;;;30.30;51.20;;;;;;2519111;54;20877;-69
2023/07/15 08:51:45;;;;;;;3.15;1.12;;;30.40;51.10;;;;;;2291974;55;20967;-67
2023/07/15 08:54:13;;;;;;;2.20;1.23;;;30.40;51.10;;;;;;2292093;56;21034;-68
2023/07/15 08:56:44;;;;;;;2.62;1.37;;;30.50;51.50;;;;;;2527695;54;21770;-67
2023/07/15 08:59:15;;;;;;;2.60;1.23;;;30.60;50.80;;;;;;2292892;55;20928;-67
2023/07/15 09:01:42;;;;;;;5.12;1.77;;;30.60;50.70;;;;;;2292502;55;20993;-68
2023/07/15 09:04:11;;;;;;;2.87;1.42;;;30.70;50.70;;;;;;2526995;54;21749;-68
2023/07/15 09:06:37;;;;;;;2.70;1.40;;;30.70;50.50;;;;;;2527669;54;21012;-69
2023/07/15 09:09:06;;;;;;;3.20;1.60;;;30.80;50.40;;;;;;2292673;55;20929;-69
2023/07/15 09:11:38;;;;;;;2.65;1.50;;;30.90;50.40;;;;;;2292350;55;21714;-70
2023/07/15 09:14:14;;;;;;;3.97;2.03;;;31.00;50.00;;;;;;2528163;54;21770;-68
2023/07/15 09:16:41;;;;;;;3.78;2.12;;;31.00;50.10;;;;;;2527416;54;20982;-69
2023/07/15 09:19:07;;;;;;;2.75;1.62;;;31.10;50.10;;;;;;2292580;55;21027;-69
2023/07/15 09:21:33;;;;;;;3.95;1.58;;;31.20;49.90;;;;;;2527178;54;21016;-70
2023/07/15 09:24:00;;;;;;;2.25;1.25;;;31.30;49.70;;;;;;2292580;55;20888;-69
2023/07/15 09:26:28;;;;;;;4.12;2.25;;;31.30;49.30;;;;;;2292385;55;21748;-70
2023/07/15 09:28:55;;;;;;;2.97;1.50;;;31.40;48.80;;;;;;2292701;55;21577;-70
2023/07/15 09:31:23;;;;;;;5.22;1.70;;;31.40;48.70;;;;;;2527757;54;20901;-69
2023/07/15 09:33:49;;;;;;;2.67;1.23;;;31.50;48.60;;;;;;2293008;55;21037;-72
2023/07/15 09:36:19;;;;;;;4.68;1.77;;;31.60;48.30;;;;;;2292867;55;21004;-69
2023/07/15 09:38:48;;;;;;;2.87;1.50;;;31.60;48.10;;;;;;2527973;54;20937;-69
2023/07/15 09:41:18;;;;;;;2.75;1.35;;;31.70;48.10;;;;;;2292691;55;20963;-72
2023/07/15 09:43:52;;;;;;;3.67;1.60;;;31.70;47.80;;;;;;2527649;54;20920;-69
2023/07/15 09:46:20;;;;;;;4.55;1.35;;;31.80;47.90;;;;;;2527647;54;21012;-70
2023/07/15 09:48:48;;;;;;;3.28;1.70;;;31.80;48.10;;;;;;2275876;55;21434;-70
2023/07/15 09:51:17;;;;;;;2.90;1.40;;;31.90;48.00;;;;;;2524822;54;21032;-69
2023/07/15 09:53:50;;;;;;;2.30;1.20;;;31.90;48.10;;;;;;2292375;55;20921;-70
2023/07/15 09:56:42;;;;;;;2.70;1.12;;;31.90;47.60;;;;;;2292491;56;20972;-70
2023/07/15 09:59:21;;;;;;;2.87;1.35;;;32.10;47.30;;;;;;2527640;54;20953;-69
2023/07/15 10:01:49;;;;;;;2.72;1.30;;;32.10;46.80;;;;;;2290358;55;20948;-70
2023/07/15 10:04:22;;;;;;;3.72;1.35;;;32.10;46.90;;;;;;2291927;55;20956;-70
2023/07/15 10:06:50;;;;;;;2.37;1.17;;;32.20;46.60;;;;;;2527336;54;20956;-70
2023/07/15 10:09:16;;;;;;;2.37;1.20;;;32.30;46.50;;;;;;2527393;54;21004;-70
2023/07/15 10:11:43;;;;;;;2.83;1.40;;;32.30;46.50;;;;;;2292174;55;20991;-70
2023/07/15 10:14:10;;;;;;;2.28;1.10;;;32.30;46.40;;;;;;2292000;55;20987;-70
2023/07/15 10:16:37;;;;;;;3.00;1.30;;;32.40;46.40;;;;;;2291877;55;21786;-69
2023/07/15 10:19:04;;;;;;;3.50;1.40;;;32.40;46.10;;;;;;2527724;54;21020;-70
2023/07/15 10:21:30;;;;;;;3.10;1.20;;;32.50;46.00;;;;;;2522048;54;21013;-70
2023/07/15 10:24:07;;;;;;;2.72;1.30;;;32.50;46.00;;;;;;2274500;55;21337;-69
2023/07/15 10:26:35;;;;;;;3.10;1.10;;;32.60;45.30;;;;;;2290876;55;20917;-69
2023/07/15 10:29:02;;;;;;;2.97;1.20;;;32.60;45.70;;;;;;2527290;54;20932;-69
2023/07/15 10:31:28;;;;;;;2.45;1.10;;;32.70;45.80;;;;;;2528033;54;20916;-70
2023/07/15 10:33:58;;;;;;;2.33;1.00;;;32.70;45.70;;;;;;2292614;56;20912;-69
2023/07/15 10:36:47;;;;;;;2.72;1.33;;;32.80;45.30;;;;;;2292757;55;20980;-71
2023/07/15 10:39:19;;;;;;;2.83;1.20;;;32.80;45.20;;;;;;2292625;55;21003;-71
2023/07/15 10:41:46;;;;;;;;;;;32.90;46.00;;;;;;2296102;55;20936;-69
2023/07/15 10:44:25;;;;;;;5.10;1.73;;;33.00;45.50;;;;;;2527565;54;20072;-69
2023/07/15 10:47:04;;;;;;;2.55;1.30;;;33.10;45.30;;;;;;2292279;56;20939;-69
2023/07/15 10:49:31;;;;;;;2.85;1.42;;;33.10;44.40;;;;;;2527695;54;20945;-69
2023/07/15 10:51:58;;;;;;;2.67;1.42;;;33.20;45.00;;;;;;2292349;56;20948;-71
2023/07/15 10:54:28;;;;;;;2.45;1.20;;;33.20;44.70;;;;;;2292079;55;21040;-68
2023/07/15 10:56:55;;;;;;;3.25;1.50;;;33.30;44.30;;;;;;2291886;56;21027;-73
2023/07/15 10:59:32;;;;;;;2.53;1.35;;;33.30;44.30;;;;;;2528002;54;21078;-72
2023/07/15 11:01:59;;;;;;;3.00;1.40;;;33.30;44.30;;;;;;2292432;55;20932;-70
2023/07/15 11:04:26;;;;;;;2.62;1.25;;;33.40;44.30;;;;;;2292678;55;20935;-69
2023/07/15 11:06:52;;;;;;;2.47;1.33;;;33.40;44.00;;;;;;2292054;55;21010;-70
2023/07/15 11:09:20;;;;;;;2.62;1.30;;;33.50;43.80;;;;;;2527336;54;20940;-67
2023/07/15 11:11:47;;;;;;;2.37;1.25;;;33.50;43.70;;;;;;2292074;55;21340;-69
2023/07/15 11:14:27;;;;;;;2.58;1.27;;;33.60;43.60;;;;;;2527385;54;20931;-68
2023/07/15 11:16:58;;;;;;;2.28;1.27;;;33.60;42.80;;;;;;2292333;55;21011;-69
2023/07/15 11:19:27;;;;;;;3.15;1.50;;;33.70;43.00;;;;;;2292532;55;21028;-68
2023/07/15 11:21:54;;;;;;;2.65;1.10;;;33.80;43.00;;;;;;2527925;54;20932;-71
2023/07/15 11:24:25;;;;;;;2.58;1.10;;;33.80;42.60;;;;;;2526584;54;20980;-71
2023/07/15 11:26:56;;;;;;;2.30;1.10;;;33.80;42.50;;;;;;2526138;54;20952;-68
2023/07/15 11:29:25;;;;;;;2.53;1.20;;;33.90;42.20;;;;;;2293071;55;20925;-68
2023/07/15 11:31:55;;;;;;;2.92;1.15;;;34.00;42.10;;;;;;2292016;55;20936;-71
2023/07/15 11:34:23;;;;;;;2.50;1.20;;;34.00;42.10;;;;;;2292759;55;20996;-70
2023/07/15 11:36:51;;;;;;;2.78;1.20;;;34.10;42.10;;;;;;2292113;56;20932;-71
2023/07/15 11:39:17;;;;;;;2.70;1.20;;;34.10;42.10;;;;;;2293047;56;20943;-71
2023/07/15 11:41:46;;;;;;;2.42;1.12;;;34.10;42.10;;;;;;2291264;55;20947;-72
2023/07/15 11:44:16;;;;;;;2.85;1.40;;;34.20;42.30;;;;;;2527769;54;20951;-70
2023/07/15 11:46:45;;;;;;;2.62;1.50;;;34.30;42.00;;;;;;2291995;55;20924;-70
2023/07/15 11:49:18;;;;;;;2.60;1.30;;;34.30;41.70;;;;;;2528036;54;20936;-70
2023/07/15 11:51:44;;;;;;;2.20;1.00;;;34.40;41.80;;;;;;2288726;55;21026;-69
2023/07/15 11:54:11;;;;;;;2.92;1.20;;;34.40;41.60;;;;;;2270061;55;20965;-67
2023/07/15 11:56:42;;;;;;;2.57;1.30;;;34.50;41.70;;;;;;2519931;54;20977;-70
2023/07/15 11:59:23;;;;;;;2.95;1.42;;;34.50;41.30;;;;;;2293041;55;20896;-71
2023/07/15 12:01:50;;;;;;;7.03;1.30;;;34.60;40.90;;;;;;2527534;54;20956;-71
2023/07/15 12:04:17;;;;;;;2.90;1.20;;;34.70;41.00;;;;;;2527777;54;20955;-69
2023/07/15 12:06:50;;;;;;;3.33;1.35;;;34.70;40.60;;;;;;2290665;55;20932;-67
2023/07/15 12:09:16;;;;;;;2.65;1.30;;;34.80;39.90;;;;;;2292570;55;20949;-70
2023/07/15 12:11:53;;;;;;;2.00;1.20;;;34.80;40.10;;;;;;2525282;54;20999;-70
2023/07/15 12:14:19;;;;;;;2.50;1.20;;;34.80;39.30;;;;;;2527936;54;20976;-68
2023/07/15 12:16:47;;;;;;;3.35;1.45;;;34.90;39.90;;;;;;2291849;55;20980;-69
2023/07/15 12:19:16;;;;;;;2.83;1.23;;;34.90;39.60;;;;;;2289365;55;20978;-70
2023/07/15 12:21:42;;;;;;;4.12;1.30;;;34.90;39.50;;;;;;2269599;55;21021;-69
2023/07/15 12:24:08;;;;;;;2.35;1.20;;;35.00;39.50;;;;;;2292186;56;20928;-67
2023/07/15 12:26:35;;;;;;;4.22;1.10;;;35.00;39.40;;;;;;2292593;55;20920;-67
2023/07/15 12:29:01;;;;;;;2.65;1.10;;;35.10;39.20;;;;;;2527876;54;20936;-68
2023/07/15 12:31:29;;;;;;;2.50;1.27;;;35.10;39.30;;;;;;2292910;55;20976;-69
2023/07/15 12:33:55;;;;;;;2.60;1.30;;;35.10;39.40;;;;;;2292899;55;20964;-68
2023/07/15 12:36:23;;;;;;;3.28;1.10;;;35.10;39.40;;;;;;2288714;55;21009;-69
2023/07/15 12:38:49;;;;;;;2.70;1.17;;;35.20;39.50;;;;;;2508147;54;20988;-69
2023/07/15 12:41:17;;;;;;;2.62;1.00;;;35.20;39.10;;;;;;2527696;54;20980;-68
2023/07/15 12:43:46;;;;;;;2.30;1.10;;;35.20;38.90;;;;;;2526958;54;20957;-69
2023/07/15 12:46:13;;;;;;;2.33;1.10;;;35.30;39.00;;;;;;2527118;54;20936;-69
2023/07/15 12:48:42;;;;;;;2.60;1.30;;;35.30;38.80;;;;;;2501450;54;20986;-69
2023/07/15 12:51:09;;;;;;;2.20;1.10;;;35.40;38.80;;;;;;2279843;55;20949;-69
2023/07/15 12:53:37;;;;;;;2.30;1.12;;;35.40;38.70;;;;;;2519239;54;21382;-66